Time;durP1;ratioP1;P1;durP2;ratioP2;P2;SDS_P1;SDS_P2;PMS_P1;PMS_P2;Temp;Humidity;BMP_temperature;BMP_pressure;BME280_temperature;BME280_humidity;BME280_pressure;Samples;Min_cycle;Max_cycle;Signal;HPM_P1;HPM_P2
2023/10/02 00:03:39;;;;;;;;;;;15.80;99.90;;;;;;2620886;54;19939;-65
2023/10/02 00:06:13;;;;;;;;;;;15.80;99.90;;;;;;2619251;39;20353;-66
2023/10/02 00:08:42;;;;;;;;;;;15.70;99.90;;;;;;2619143;54;19950;-65
2023/10/02 00:11:35;;;;;;;;;;;15.70;99.90;;;;;;2618550;54;19986;-65
2023/10/02 00:16:58;;;;;;;;;;;15.70;99.90;;;;;;2618411;47;19946;-66
2023/10/02 00:19:35;;;;;;;;;;;15.70;99.90;;;;;;2618086;54;19953;-65
2023/10/02 00:22:08;;;;;;;;;;;15.70;99.90;;;;;;2618630;54;19938;-66
2023/10/02 00:24:38;;;;;;;;;;;15.70;99.90;;;;;;2618350;50;19990;-66
2023/10/02 00:27:09;;;;;;;;;;;15.60;99.90;;;;;;2618120;54;19939;-66
2023/10/02 00:29:51;;;;;;;;;;;15.60;99.90;;;;;;2619071;54;19953;-66
2023/10/02 00:32:26;;;;;;;;;;;15.60;99.90;;;;;;2618781;54;19946;-66
2023/10/02 00:35:00;;;;;;;;;;;15.60;99.90;;;;;;2617862;54;19954;-66
2023/10/02 00:37:43;;;;;;;;;;;15.50;99.90;;;;;;2618486;54;19939;-66
2023/10/02 00:40:20;;;;;;;;;;;15.50;99.90;;;;;;2618424;47;19939;-66
2023/10/02 00:42:49;;;;;;;;;;;15.50;99.90;;;;;;2617890;54;19954;-66
2023/10/02 00:45:19;;;;;;;;;;;15.50;99.90;;;;;;2618159;54;19954;-67
2023/10/02 00:47:47;;;;;;;;;;;15.50;99.90;;;;;;2618411;54;20065;-66
2023/10/02 00:50:20;;;;;;;;;;;15.40;99.90;;;;;;2618409;47;19946;-67
2023/10/02 00:52:49;;;;;;;;;;;15.40;99.90;;;;;;2627808;54;20340;-66
2023/10/02 00:55:20;;;;;;;;;;;15.40;99.90;;;;;;2627602;54;19943;-67
2023/10/02 00:57:50;;;;;;;;;;;15.40;99.90;;;;;;2627373;39;20361;-67
2023/10/02 01:00:30;;;;;;;;;;;15.40;99.90;;;;;;2617615;54;19957;-67
2023/10/02 01:03:01;;;;;;;;;;;15.50;99.90;;;;;;2617919;54;19946;-67
2023/10/02 01:05:50;;;;;;;;;;;15.40;99.90;;;;;;2622332;54;19942;-71
2023/10/02 01:08:42;;;;;;;;;;;15.40;99.90;;;;;;2626904;54;19975;-69
2023/10/02 01:11:15;;;;;;;;;;;15.40;99.90;;;;;;2626365;54;19939;-68
2023/10/02 01:13:45;;;;;;;;;;;15.40;99.90;;;;;;2621505;47;20486;-67
2023/10/02 01:16:17;;;;;;;;;;;15.30;99.90;;;;;;2619151;54;19954;-67
2023/10/02 01:18:48;;;;;;;;;;;15.30;99.90;;;;;;2618906;47;19939;-68
2023/10/02 01:21:24;;;;;;;;;;;15.30;99.90;;;;;;2618434;47;19946;-67
2023/10/02 01:24:17;;;;;;;;;;;15.30;99.90;;;;;;2618904;54;19939;-67
2023/10/02 01:26:50;;;;;;;;;;;15.30;99.90;;;;;;2617986;46;19973;-67
2023/10/02 01:29:22;;;;;;;;;;;15.30;99.90;;;;;;2618494;54;19938;-67
2023/10/02 01:31:53;;;;;;;;;;;15.30;99.90;;;;;;2618622;54;19954;-67
2023/10/02 01:37:32;;;;;;;;;;;15.30;99.90;;;;;;2619691;54;19954;-67
2023/10/02 01:42:43;;;;;;;;;;;15.30;99.90;;;;;;2620791;47;19951;-66
2023/10/02 01:45:13;;;;;;;;;;;15.30;99.90;;;;;;2618688;54;19939;-66
2023/10/02 01:47:43;;;;;;;;;;;15.30;99.90;;;;;;2619086;54;20442;-66
2023/10/02 01:50:13;;;;;;;;;;;15.30;99.90;;;;;;2618696;54;20446;-66
2023/10/02 01:52:45;;;;;;;;;;;15.30;99.90;;;;;;2622104;39;20464;-67
2023/10/02 01:55:29;;;;;;;;;;;15.30;99.90;;;;;;2620654;47;19951;-66
2023/10/02 01:58:16;;;;;;;;;;;15.40;99.90;;;;;;2618776;54;19958;-67
2023/10/02 02:00:47;;;;;;;;;;;15.40;99.90;;;;;;2619000;54;19946;-67
2023/10/02 02:03:18;;;;;;;;;;;15.40;99.90;;;;;;2618611;47;20493;-67
2023/10/02 02:05:49;;;;;;;;;;;15.40;99.90;;;;;;2619370;54;19966;-67
2023/10/02 02:08:24;;;;;;;;;;;15.30;99.90;;;;;;2619326;39;20339;-67
2023/10/02 02:11:14;;;;;;;;;;;15.30;99.90;;;;;;2618751;46;20061;-67
2023/10/02 02:13:47;;;;;;;;;;;15.30;99.90;;;;;;2619064;46;19946;-66
2023/10/02 02:16:21;;;;;;;;;;;15.30;99.90;;;;;;2618346;54;19927;-68
2023/10/02 02:18:53;;;;;;;;;;;15.30;99.90;;;;;;2615628;54;19946;-68
2023/10/02 02:21:24;;;;;;;;;;;15.30;99.90;;;;;;2617290;54;19947;-68
2023/10/02 02:24:03;;;;;;;;;;;15.30;99.90;;;;;;2617143;54;19938;-67
2023/10/02 02:26:36;;;;;;;;;;;15.30;99.90;;;;;;2618325;54;19987;-67
2023/10/02 02:29:16;;;;;;;;;;;15.30;99.90;;;;;;2617512;39;20471;-66
2023/10/02 02:31:46;;;;;;;;;;;15.20;99.90;;;;;;2617813;54;19938;-67
2023/10/02 02:34:17;;;;;;;;;;;15.20;99.90;;;;;;2617637;54;19946;-68
2023/10/02 02:36:47;;;;;;;;;;;15.20;99.90;;;;;;2616876;54;19939;-68
2023/10/02 02:39:22;;;;;;;;;;;15.20;99.90;;;;;;2617322;54;19946;-68
2023/10/02 02:44:39;;;;;;;;;;;15.20;99.90;;;;;;2617170;54;19946;-67
2023/10/02 02:47:10;;;;;;;;;;;15.10;99.90;;;;;;2618072;54;19939;-67
2023/10/02 02:49:58;;;;;;;;;;;15.10;99.90;;;;;;2617179;54;19939;-67
2023/10/02 02:52:32;;;;;;;;;;;15.10;99.90;;;;;;2622444;46;19968;-72
2023/10/02 02:55:12;;;;;;;;;;;15.10;99.90;;;;;;2617922;39;20334;-72
2023/10/02 02:57:45;;;;;;;;;;;15.00;99.90;;;;;;2616673;47;20046;-72
2023/10/02 03:00:31;;;;;;;;;;;15.00;99.90;;;;;;2616780;39;20347;-73
2023/10/02 03:03:00;;;;;;;;;;;15.00;99.90;;;;;;2617168;47;19971;-72
2023/10/02 03:05:41;;;;;;;;;;;15.10;99.90;;;;;;2616466;47;20026;-72
2023/10/02 03:08:11;;;;;;;;;;;15.10;99.90;;;;;;2617284;54;20023;-72
2023/10/02 03:10:46;;;;;;;;;;;15.10;99.90;;;;;;2617296;54;19947;-72
2023/10/02 03:13:19;;;;;;;;;;;15.10;99.90;;;;;;2620885;54;19951;-73
2023/10/02 03:15:49;;;;;;;;;;;15.10;99.90;;;;;;2617906;54;19969;-71
2023/10/02 03:18:36;;;;;;;;;;;15.10;99.90;;;;;;2617291;54;20464;-73
2023/10/02 03:21:14;;;;;;;;;;;15.10;99.90;;;;;;2617041;48;20000;-73
2023/10/02 03:23:44;;;;;;;;;;;15.10;99.90;;;;;;2618450;39;20348;-72
2023/10/02 03:26:26;;;;;;;;;;;15.10;99.90;;;;;;2618197;39;20060;-72
2023/10/02 03:29:03;;;;;;;;;;;15.00;99.90;;;;;;2617605;39;20327;-72
2023/10/02 03:31:43;;;;;;;;;;;15.00;99.90;;;;;;2617899;47;19987;-73
2023/10/02 03:36:59;;;;;;;;;;;14.90;99.90;;;;;;2618099;47;19947;-72
2023/10/02 07:22:16;;;;;;;;;;;15.60;99.90;;;;;;2605405;54;19942;-74
2023/10/02 07:24:48;;;;;;;;;;;16.00;99.90;;;;;;2616098;54;19946;-75
2023/10/02 07:27:38;;;;;;;;;;;15.70;99.90;;;;;;2613164;54;20071;-75
2023/10/02 07:30:27;;;;;;;;;;;15.80;99.90;;;;;;2614571;54;19947;-77
2023/10/02 07:33:03;;;;;;;;;;;15.90;99.90;;;;;;2624004;47;20961;-75
2023/10/02 07:35:36;;;;;;;;;;;15.90;99.90;;;;;;2625737;54;20020;-75
2023/10/02 07:38:10;;;;;;;;;;;16.00;99.90;;;;;;2616001;54;19947;-76
2023/10/02 07:40:49;;;;;;;;;;;16.00;99.90;;;;;;2616113;47;20552;-76
2023/10/02 07:43:19;;;;;;;;;;;16.10;99.90;;;;;;2623938;54;19946;-75
2023/10/02 07:46:01;;;;;;;;;;;16.20;99.90;;;;;;2621852;54;19947;-75
2023/10/02 07:48:33;;;;;;;;;;;16.20;99.90;;;;;;2616401;47;20443;-75
2023/10/02 07:51:06;;;;;;;;;;;16.20;99.90;;;;;;2616287;54;19947;-75
2023/10/02 07:53:43;;;;;;;;;;;16.70;99.90;;;;;;2615847;39;20377;-75
2023/10/02 07:56:16;;;;;;;;;;;16.40;99.90;;;;;;2615336;54;19999;-76
2023/10/02 07:58:54;;;;;;;;;;;16.40;99.90;;;;;;2616943;47;19999;-76
2023/10/02 08:01:27;;;;;;;;;;;16.40;99.90;;;;;;2616173;54;19946;-75
2023/10/02 08:03:58;;;;;;;;;;;16.40;99.90;;;;;;2616220;54;19947;-76
2023/10/02 08:06:36;;;;;;;;;;;16.50;99.90;;;;;;2616568;54;19954;-75
2023/10/02 08:09:39;;;;;;;;;;;16.50;99.90;;;;;;2617385;39;20347;-75
2023/10/02 08:12:08;;;;;;;;;;;16.60;99.90;;;;;;2615653;54;19947;-75
2023/10/02 08:14:42;;;;;;;;;;;16.70;99.90;;;;;;2615434;47;19947;-76
2023/10/02 08:17:21;;;;;;;;;;;16.70;99.90;;;;;;2615862;54;19953;-76
2023/10/02 08:19:54;;;;;;;;;;;16.90;99.90;;;;;;2615625;47;19951;-77
2023/10/02 08:22:27;;;;;;;;;;;17.00;99.90;;;;;;2615647;54;19950;-77
2023/10/02 08:24:59;;;;;;;;;;;17.10;99.90;;;;;;2615724;47;19946;-76
2023/10/02 08:27:32;;;;;;;;;;;17.20;99.90;;;;;;2615087;54;20002;-74
2023/10/02 08:30:17;;;;;;;;;;;17.30;99.90;;;;;;2618659;39;20416;-75
2023/10/02 08:32:49;;;;;;;;;;;17.40;99.90;;;;;;2616109;50;19998;-75
2023/10/02 08:35:19;;;;;;;;;;;17.50;99.90;;;;;;2615404;47;19994;-75
2023/10/02 08:37:54;;;;;;;;;;;17.60;99.90;;;;;;2618112;47;20028;-73
2023/10/02 08:40:26;;;;;;;;;;;17.70;99.90;;;;;;2623234;54;19963;-75
2023/10/02 08:42:58;;;;;;;;;;;17.80;99.90;;;;;;2621220;47;19959;-75
2023/10/02 08:45:28;;;;;;;;;;;17.90;99.90;;;;;;2624539;47;19976;-75
2023/10/02 08:48:07;;;;;;;;;;;18.10;99.90;;;;;;2619946;47;19946;-75
2023/10/02 08:50:38;;;;;;;;;;;18.20;99.90;;;;;;2616031;47;20569;-75
2023/10/02 08:53:09;;;;;;;;;;;18.20;99.90;;;;;;2615845;54;19955;-75
2023/10/02 08:55:51;;;;;;;;;;;18.30;99.90;;;;;;2620464;54;19954;-74
2023/10/02 08:58:21;;;;;;;;;;;18.40;99.90;;;;;;2615902;47;19955;-76
2023/10/02 09:01:17;;;;;;;;;;;18.50;99.90;;;;;;2615115;54;19995;-76
2023/10/02 09:04:21;;;;;;;;;;;18.60;99.90;;;;;;2615327;54;19978;-75
2023/10/02 09:06:44;;;;;;;;;;;18.70;99.90;;;;;;2614783;39;20020;-74
2023/10/02 09:09:27;;;;;;;;;;;18.80;99.90;;;;;;2614962;47;20034;-73
2023/10/02 09:12:03;;;;;;;;;;;18.90;99.90;;;;;;2614603;47;19954;-75
2023/10/02 09:14:42;;;;;;;;;;;18.90;99.90;;;;;;2616056;47;20467;-75
2023/10/02 09:17:19;;;;;;;;;;;19.00;99.90;;;;;;2615482;54;20002;-74
2023/10/02 09:19:56;;;;;;;;;;;19.10;99.90;;;;;;2617301;31;20453;-75
2023/10/02 09:22:27;;;;;;;;;;;19.20;99.90;;;;;;2623910;47;19962;-75
2023/10/02 09:25:09;;;;;;;;;;;19.30;99.90;;;;;;2615943;54;20549;-75
2023/10/02 09:27:54;;;;;;;;;;;19.50;99.90;;;;;;2615549;54;19947;-74
2023/10/02 09:30:36;;;;;;;;;;;19.60;99.90;;;;;;2615317;39;20362;-75
2023/10/02 09:33:14;;;;;;;;;;;19.70;99.90;;;;;;2614167;46;20066;-75
2023/10/02 09:35:56;;;;;;;;;;;19.90;99.90;;;;;;2615040;54;19958;-77
2023/10/02 09:38:46;;;;;;;;;;;20.00;99.90;;;;;;2616542;54;19954;-75
2023/10/02 09:41:20;;;;;;;;;;;20.10;99.90;;;;;;2615019;47;19969;-74
2023/10/02 09:43:53;;;;;;;;;;;20.20;99.90;;;;;;2615394;54;19951;-74
2023/10/02 09:46:29;;;;;;;;;;;20.20;99.90;;;;;;2616713;47;19957;-74
2023/10/02 09:49:03;;;;;;;;;;;20.30;99.90;;;;;;2615171;47;19969;-75
2023/10/02 09:52:09;;;;;;;;;;;20.40;99.90;;;;;;2617907;54;19995;-75
2023/10/02 09:54:41;;;;;;;;;;;20.50;99.90;;;;;;2618208;47;19953;-73
2023/10/02 09:57:15;;;;;;;;;;;20.60;99.90;;;;;;2617943;54;20511;-73
2023/10/02 09:59:54;;;;;;;;;;;20.70;99.90;;;;;;2628786;54;19943;-75
2023/10/02 10:10:52;;;;;;;;;;;21.10;99.90;;;;;;2618718;47;19946;-72
2023/10/02 10:13:26;;;;;;;;;;;21.20;99.90;;;;;;2619527;54;19946;-72
2023/10/02 10:16:11;;;;;;;;;;;21.40;99.90;;;;;;2618794;54;19946;-71
2023/10/02 10:19:26;;;;;;;;;;;21.50;99.90;;;;;;2618980;39;20347;-72
2023/10/02 10:21:56;;;;;;;;;;;21.50;99.90;;;;;;2619006;39;20356;-72
2023/10/02 10:24:56;;;;;;;;;;;21.60;99.90;;;;;;2618648;54;19964;-72
2023/10/02 10:27:39;;;;;;;;;;;21.70;99.90;;;;;;2618367;39;20226;-74
2023/10/02 10:30:25;;;;;;;;;;;21.80;99.90;;;;;;2617990;54;20455;-73
2023/10/02 10:33:15;;;;;;;;;;;21.90;99.90;;;;;;2619504;39;20427;-74
2023/10/02 10:35:51;;;;;;;;;;;22.00;99.90;;;;;;2618916;54;19947;-73
2023/10/02 10:38:41;;;;;;;;;;;22.10;99.90;;;;;;2618545;54;19964;-72
2023/10/02 10:41:14;;;;;;;;;;;22.20;99.90;;;;;;2618411;54;19958;-73
2023/10/02 10:43:55;;;;;;;;;;;22.20;99.90;;;;;;2618668;54;19951;-75
2023/10/02 10:46:27;;;;;;;;;;;22.30;99.90;;;;;;2618433;54;20073;-75
2023/10/02 10:48:59;;;;;;;;;;;22.40;99.90;;;;;;2618711;54;19987;-75
2023/10/02 10:51:33;;;;;;;;;;;22.40;99.90;;;;;;2618981;39;20488;-73
2023/10/02 10:54:12;;;;;;;;;;;22.50;99.90;;;;;;2617667;54;19938;-74
2023/10/02 10:57:18;;;;;;;;;;;22.60;99.90;;;;;;2618258;47;19953;-74
2023/10/02 10:59:49;;;;;;;;;;;22.70;99.90;;;;;;2617142;54;20461;-73
2023/10/02 11:02:19;;;;;;;;;;;22.80;99.90;;;;;;2622744;54;19942;-78
2023/10/02 11:04:52;;;;;;;;;;;22.90;99.90;;;;;;2623304;54;19947;-76
2023/10/02 11:07:23;;;;;;;;;;;23.10;99.90;;;;;;2618096;47;19954;-76
2023/10/02 11:10:14;;;;;;;;;;;23.20;99.90;;;;;;2617633;54;19954;-76
2023/10/02 11:12:54;;;;;;;;;;;23.30;99.90;;;;;;2618298;54;19953;-75
2023/10/02 11:18:23;;;;;;;;;;;23.40;99.90;;;;;;2618398;54;19946;-74
2023/10/02 11:20:55;;;;;;;;;;;23.50;99.90;;;;;;2618287;52;20280;-73
2023/10/02 11:23:37;;;;;;;;;;;23.60;99.90;;;;;;2618161;54;19946;-76
2023/10/02 11:26:12;;;;;;;;;;;23.70;99.90;;;;;;2617494;54;19953;-74
2023/10/02 11:28:45;;;;;;;;;;;23.70;99.90;;;;;;2617822;54;19946;-74
2023/10/02 11:31:29;;;;;;;;;;;23.80;99.90;;;;;;2617586;54;20034;-73
2023/10/02 11:34:00;;;;;;;;;;;24.00;99.90;;;;;;2617962;54;19970;-71
2023/10/02 11:36:52;;;;;;;;;;;24.10;99.90;;;;;;2618302;54;19958;-72
2023/10/02 11:39:27;;;;;;;;;;;24.30;99.90;;;;;;2617998;54;19939;-74
2023/10/02 11:42:00;;;;;;;;;;;24.50;99.90;;;;;;2618380;54;19947;-72
2023/10/02 11:44:30;;;;;;;;;;;24.60;99.90;;;;;;2618613;47;19947;-72
2023/10/02 11:47:00;;;;;;;;;;;24.60;99.90;;;;;;2618277;47;19950;-71
2023/10/02 11:49:30;;;;;;;;;;;24.60;99.90;;;;;;2618196;54;19950;-72
2023/10/02 11:52:01;;;;;;;;;;;24.60;99.90;;;;;;2617371;47;19973;-73
2023/10/02 11:54:35;;;;;;;;;;;24.70;99.90;;;;;;2617944;54;19946;-73
2023/10/02 11:57:10;;;;;;;;;;;24.80;99.90;;;;;;2618366;54;19946;-72
2023/10/02 11:59:41;;;;;;;;;;;25.00;99.90;;;;;;2617450;47;20356;-77
2023/10/02 12:02:16;;;;;;;;;;;25.20;99.90;;;;;;2616886;47;20323;-73
2023/10/02 12:04:47;;;;;;;;;;;25.30;99.90;;;;;;2617613;54;19951;-73
2023/10/02 12:07:18;;;;;;;;;;;25.40;99.90;;;;;;2617094;39;20222;-75
2023/10/02 12:09:54;;;;;;;;;;;25.50;99.90;;;;;;2616602;54;19953;-75
2023/10/02 12:12:27;;;;;;;;;;;25.60;99.90;;;;;;2617816;31;20490;-73
2023/10/02 12:14:59;;;;;;;;;;;25.60;99.90;;;;;;2615835;47;19950;-74
2023/10/02 12:17:31;;;;;;;;;;;25.60;99.90;;;;;;2615772;47;19951;-73
2023/10/02 12:20:10;;;;;;;;;;;25.50;99.90;;;;;;2615330;54;19998;-76
2023/10/02 12:22:44;;;;;;;;;;;25.30;99.90;;;;;;2614812;47;19947;-77
2023/10/02 12:25:18;;;;;;;;;;;25.40;99.90;;;;;;2615616;46;19939;-74
2023/10/02 12:27:52;;;;;;;;;;;25.40;99.90;;;;;;2614889;54;19954;-75
2023/10/02 12:30:26;;;;;;;;;;;25.50;99.90;;;;;;2615184;39;20412;-76
2023/10/02 12:33:01;;;;;;;;;;;25.60;99.90;;;;;;2615499;46;20417;-72
2023/10/02 12:35:37;;;;;;;;;;;25.50;99.90;;;;;;2616180;54;19998;-75
2023/10/02 12:38:11;;;;;;;;;;;25.50;99.90;;;;;;2617725;46;20002;-75
2023/10/02 12:40:43;;;;;;;;;;;25.60;99.90;;;;;;2619946;46;19950;-75
2023/10/02 12:43:17;;;;;;;;;;;25.60;99.90;;;;;;2619856;47;19970;-73
2023/10/02 12:45:49;;;;;;;;;;;25.70;99.90;;;;;;2616342;54;19947;-76
2023/10/02 12:48:20;;;;;;;;;;;25.90;99.90;;;;;;2616548;46;19947;-76
2023/10/02 12:50:53;;;;;;;;;;;26.00;99.90;;;;;;2615691;47;19947;-75
2023/10/02 12:53:29;;;;;;;;;;;25.90;99.90;;;;;;2615607;46;20345;-76
2023/10/02 12:56:01;;;;;;;;;;;25.90;99.90;;;;;;2615002;47;19953;-74
2023/10/02 12:58:34;;;;;;;;;;;26.00;99.90;;;;;;2615119;47;19958;-74
2023/10/02 13:01:05;;;;;;;;;;;26.20;99.90;;;;;;2615203;54;19951;-72
2023/10/02 13:03:40;;;;;;;;;;;26.30;99.90;;;;;;2615331;47;20549;-77
2023/10/02 13:06:13;;;;;;;;;;;26.60;99.90;;;;;;2617614;47;19945;-74
2023/10/02 13:08:43;;;;;;;;;;;28.00;99.90;;;;;;2621212;47;19977;-74
2023/10/02 13:11:18;;;;;;;;;;;27.00;99.90;;;;;;2617076;54;19953;-75
2023/10/02 13:13:53;;;;;;;;;;;27.20;99.90;;;;;;2614475;39;20367;-73
2023/10/02 13:16:26;;;;;;;;;;;27.30;99.90;;;;;;2615084;54;19958;-74
2023/10/02 13:18:57;;;;;;;;;;;27.50;99.90;;;;;;2613412;47;19950;-73
2023/10/02 13:21:28;;;;;;;;;;;27.60;99.90;;;;;;2613469;50;19958;-73
2023/10/02 13:24:01;;;;;;;;;;;27.70;99.90;;;;;;2613898;54;19946;-75
2023/10/02 13:26:31;;;;;;;;;;;27.70;99.90;;;;;;2613821;54;20499;-73
2023/10/02 13:29:05;;;;;;;;;;;27.80;99.90;;;;;;2613978;47;19951;-80
2023/10/02 13:31:36;;;;;;;;;;;27.90;99.90;;;;;;2613338;54;19947;-73
2023/10/02 13:34:07;;;;;;;;;;;27.90;99.90;;;;;;2612914;47;19946;-75
2023/10/02 13:36:37;;;;;;;;;;;27.90;99.90;;;;;;2613381;54;19939;-73
2023/10/02 13:39:13;;;;;;;;;;;27.80;99.90;;;;;;2613626;54;19955;-73
2023/10/02 13:41:46;;;;;;;;;;;27.70;99.90;;;;;;2613672;39;20252;-74
2023/10/02 13:44:19;;;;;;;;;;;27.60;99.90;;;;;;2614396;47;20041;-72
2023/10/02 13:46:51;;;;;;;;;;;27.50;99.90;;;;;;2615395;54;19947;-74
2023/10/02 13:49:23;;;;;;;;;;;27.40;99.90;;;;;;2615578;54;19995;-73
2023/10/02 13:51:54;;;;;;;;;;;27.20;99.90;;;;;;2615075;54;20009;-73
2023/10/02 13:54:37;;;;;;;;;;;27.10;99.90;;;;;;2614976;54;19953;-73
2023/10/02 13:57:08;;;;;;;;;;;27.00;99.90;;;;;;2615403;47;19947;-72
2023/10/02 13:59:41;;;;;;;;;;;26.90;99.90;;;;;;2614877;39;20130;-74
2023/10/02 14:02:13;;;;;;;;;;;26.80;99.90;;;;;;2614370;47;19950;-74
2023/10/02 14:04:43;;;;;;;;;;;26.70;99.90;;;;;;2615309;54;19946;-74
2023/10/02 14:07:13;;;;;;;;;;;26.70;99.90;;;;;;2615887;46;20459;-72
2023/10/02 14:09:42;;;;;;;;;;;26.70;99.90;;;;;;2615783;54;19947;-73
2023/10/02 14:12:14;;;;;;;;;;;26.70;99.90;;;;;;2617409;54;20080;-73
2023/10/02 14:14:47;;;;;;;;;;;26.70;99.90;;;;;;2622619;54;19985;-72
2023/10/02 14:17:19;;;;;;;;;;;26.60;99.90;;;;;;2620819;47;19946;-74
2023/10/02 14:19:50;;;;;;;;;;;26.60;99.90;;;;;;2616627;54;19946;-74
2023/10/02 14:22:26;;;;;;;;;;;26.60;99.90;;;;;;2620608;54;19954;-73
2023/10/02 14:24:56;;;;;;;;;;;26.60;99.90;;;;;;2618354;47;19946;-75
2023/10/02 14:27:27;;;;;;;;;;;26.90;99.90;;;;;;2617173;47;19986;-74
2023/10/02 14:30:00;;;;;;;;;;;27.90;99.90;;;;;;2618076;47;19954;-74
2023/10/02 14:32:31;;;;;;;;;;;29.70;99.90;;;;;;2618190;54;19994;-75
2023/10/02 14:35:02;;;;;;;;;;;31.00;99.90;;;;;;2617181;47;19951;-74
2023/10/02 14:37:36;;;;;;;;;;;31.70;99.90;;;;;;2617528;47;19962;-74
2023/10/02 14:40:09;;;;;;;;;;;31.80;99.90;;;;;;2616771;47;19951;-72
2023/10/02 14:42:40;;;;;;;;;;;32.20;99.90;;;;;;2617960;46;19974;-73
2023/10/02 14:45:13;;;;;;;;;;;33.60;99.90;;;;;;2616999;54;20565;-73
2023/10/02 14:47:43;;;;;;;;;;;35.00;99.90;;;;;;2617004;54;19946;-73
2023/10/02 14:50:16;;;;;;;;;;;36.10;99.90;;;;;;2617206;39;20328;-76
2023/10/02 14:52:48;;;;;;;;;;;36.70;99.90;;;;;;2617735;54;19947;-73
2023/10/02 14:55:19;;;;;;;;;;;36.90;99.90;;;;;;2616974;54;19998;-76
2023/10/02 14:57:51;;;;;;;;;;;37.20;99.90;;;;;;2617863;54;19946;-76
2023/10/02 15:00:24;;;;;;;;;;;37.20;99.90;;;;;;2616609;47;19939;-74
2023/10/02 15:02:54;;;;;;;;;;;38.00;99.90;;;;;;2616970;46;20448;-74
2023/10/02 15:05:27;;;;;;;;;;;38.90;99.90;;;;;;2617018;46;20448;-74
2023/10/02 15:08:00;;;;;;;;;;;39.70;99.90;;;;;;2617190;47;20014;-77
2023/10/02 15:10:32;;;;;;;;;;;39.70;99.90;;;;;;2616932;47;19954;-76
2023/10/02 15:13:02;;;;;;;;;;;39.40;99.90;;;;;;2616954;54;19952;-77
2023/10/02 15:15:35;;;;;;;;;;;39.10;99.90;;;;;;2617530;54;19965;-74
2023/10/02 15:18:08;;;;;;;;;;;39.30;99.90;;;;;;2617402;54;19950;-76
2023/10/02 15:20:39;;;;;;;;;;;39.30;99.90;;;;;;2617331;39;20662;-77
2023/10/02 15:23:10;;;;;;;;;;;39.50;99.90;;;;;;2616507;47;20045;-75
2023/10/02 15:25:42;;;;;;;;;;;39.50;99.90;;;;;;2617047;54;20431;-74
2023/10/02 15:28:13;;;;;;;;;;;38.80;99.90;;;;;;2616502;47;19981;-74
2023/10/02 15:30:47;;;;;;;;;;;38.30;99.90;;;;;;2616842;47;19950;-74
2023/10/02 15:33:16;;;;;;;;;;;37.90;99.90;;;;;;2616528;47;20443;-74
2023/10/02 15:35:46;;;;;;;;;;;37.10;99.90;;;;;;2617145;47;20462;-75
2023/10/02 15:38:20;;;;;;;;;;;36.10;99.90;;;;;;2617611;54;20050;-73
2023/10/02 15:40:52;;;;;;;;;;;35.00;99.90;;;;;;2621075;47;19953;-75
2023/10/02 15:43:25;;;;;;;;;;;34.00;99.90;;;;;;2622847;47;19977;-76
2023/10/02 15:45:58;;;;;;;;;;;33.30;99.90;;;;;;2619099;54;19953;-74
2023/10/02 15:48:38;;;;;;;;;;;32.60;99.90;;;;;;2617395;47;20495;-74
2023/10/02 15:51:14;;;;;;;;;;;32.00;99.90;;;;;;2617410;47;19958;-75
2023/10/02 15:53:45;;;;;;;;;;;31.30;99.90;;;;;;2617583;47;19969;-75
2023/10/02 15:56:17;;;;;;;;;;;30.60;99.90;;;;;;2617438;47;19946;-74
2023/10/02 15:58:48;;;;;;;;;;;30.00;99.90;;;;;;2616839;47;20003;-72
2023/10/02 16:01:22;;;;;;;;;;;29.50;99.90;;;;;;2617981;51;19946;-73
2023/10/02 16:03:53;;;;;;;;;;;29.10;99.90;;;;;;2617963;47;19946;-72
2023/10/02 16:06:24;;;;;;;;;;;28.60;99.90;;;;;;2618021;47;19961;-76
2023/10/02 16:08:57;;;;;;;;;;;28.30;99.90;;;;;;2616624;54;19946;-73
2023/10/02 16:11:30;;;;;;;;;;;28.00;99.90;;;;;;2617544;54;19995;-71
2023/10/02 16:14:00;;;;;;;;;;;27.70;99.90;;;;;;2616836;54;19969;-74
2023/10/02 16:16:33;;;;;;;;;;;26.80;99.90;;;;;;2618046;39;20340;-73
2023/10/02 16:19:03;;;;;;;;;;;27.10;99.90;;;;;;2618470;54;19951;-75
2023/10/02 16:21:33;;;;;;;;;;;26.80;99.90;;;;;;2617674;54;19970;-74
2023/10/02 16:24:05;;;;;;;;;;;26.50;99.90;;;;;;2617324;39;20341;-73
2023/10/02 16:26:35;;;;;;;;;;;26.30;99.90;;;;;;2618676;54;20481;-76
2023/10/02 16:29:05;;;;;;;;;;;26.10;99.90;;;;;;2619095;54;19938;-76
2023/10/02 16:31:42;;;;;;;;;;;25.90;99.90;;;;;;2618445;47;19999;-75
2023/10/02 16:34:11;;;;;;;;;;;25.60;99.90;;;;;;2618047;54;19951;-75
2023/10/02 16:36:41;;;;;;;;;;;25.50;99.90;;;;;;2618145;54;19954;-75
2023/10/02 16:39:11;;;;;;;;;;;25.30;99.90;;;;;;2618949;54;19953;-75
2023/10/02 16:41:45;;;;;;;;;;;25.10;99.90;;;;;;2618433;47;19974;-75
2023/10/02 16:44:17;;;;;;;;;;;24.90;99.90;;;;;;2618898;47;19947;-74
2023/10/02 16:46:53;;;;;;;;;;;24.80;99.90;;;;;;2618473;47;19950;-75
2023/10/02 16:49:23;;;;;;;;;;;24.60;99.90;;;;;;2617784;54;19939;-75
2023/10/02 16:51:53;;;;;;;;;;;24.50;99.90;;;;;;2618294;54;20068;-76
2023/10/02 16:54:23;;;;;;;;;;;24.20;99.90;;;;;;2617868;54;20050;-76
2023/10/02 16:56:53;;;;;;;;;;;24.20;99.90;;;;;;2618029;54;19951;-76
2023/10/02 16:59:23;;;;;;;;;;;24.00;99.90;;;;;;2622444;46;19950;-75
2023/10/02 17:01:58;;;;;;;;;;;23.90;99.90;;;;;;2619459;54;19954;-75
2023/10/02 17:04:28;;;;;;;;;;;23.70;99.90;;;;;;2618099;39;20358;-75
2023/10/02 17:06:58;;;;;;;;;;;23.60;99.90;;;;;;2619065;54;19947;-75
2023/10/02 17:09:29;;;;;;;;;;;23.40;99.90;;;;;;2618679;47;19998;-75
2023/10/02 17:11:59;;;;;;;;;;;23.30;99.90;;;;;;2617772;54;19953;-76
2023/10/02 17:14:29;;;;;;;;;;;23.10;99.90;;;;;;2617523;54;19947;-76
2023/10/02 17:17:02;;;;;;;;;;;23.00;99.90;;;;;;2617954;54;19947;-76
2023/10/02 17:19:32;;;;;;;;;;;22.90;99.90;;;;;;2616995;54;19957;-79
2023/10/02 17:22:02;;;;;;;;;;;23.90;99.90;;;;;;2610054;54;20583;-77
2023/10/02 17:24:32;;;;;;;;;;;22.60;99.90;;;;;;2614868;47;19956;-78
2023/10/02 17:27:02;;;;;;;;;;;22.50;99.90;;;;;;2615124;39;20223;-79
2023/10/02 17:29:31;;;;;;;;;;;22.40;99.90;;;;;;2612097;47;19951;-78
2023/10/02 17:32:04;;;;;;;;;;;22.30;99.90;;;;;;2616437;54;19946;-78
2023/10/02 17:34:33;;;;;;;;;;;22.20;99.90;;;;;;2619473;47;19950;-77
2023/10/02 17:37:03;;;;;;;;;;;22.10;99.90;;;;;;2620435;47;20429;-78
2023/10/02 17:39:33;;;;;;;;;;;22.00;99.90;;;;;;2621282;47;20473;-77
2023/10/02 17:42:03;;;;;;;;;;;21.90;99.90;;;;;;2621779;47;19958;-78
2023/10/02 17:44:32;;;;;;;;;;;21.80;99.90;;;;;;2624294;47;19950;-80
2023/10/02 17:47:05;;;;;;;;;;;21.80;99.90;;;;;;2626292;47;19938;-80
2023/10/02 17:49:35;;;;;;;;;;;21.70;99.90;;;;;;2626216;47;19946;-80
2023/10/02 17:52:05;;;;;;;;;;;21.60;99.90;;;;;;2625078;47;19990;-80
2023/10/02 17:54:35;;;;;;;;;;;21.60;99.90;;;;;;2628086;47;19951;-81
2023/10/02 17:57:05;;;;;;;;;;;21.50;99.90;;;;;;2628929;47;19994;-81
2023/10/02 17:59:37;;;;;;;;;;;21.40;99.90;;;;;;2628441;54;19946;-81
2023/10/02 18:02:10;;;;;;;;;;;21.30;99.90;;;;;;2627145;47;19953;-80
2023/10/02 18:04:44;;;;;;;;;;;21.20;99.90;;;;;;2627764;47;19955;-82
2023/10/02 18:07:15;;;;;;;;;;;21.20;99.90;;;;;;2626765;46;19966;-79
2023/10/02 18:09:48;;;;;;;;;;;21.10;99.90;;;;;;2625921;47;19946;-79
2023/10/02 18:12:19;;;;;;;;;;;21.20;99.90;;;;;;2628086;54;20057;-80
2023/10/02 18:14:53;;;;;;;;;;;20.90;99.90;;;;;;2628549;47;19945;-79
2023/10/02 18:17:30;;;;;;;;;;;20.90;99.90;;;;;;2628047;47;19964;-83
2023/10/02 18:20:01;;;;;;;;;;;20.50;99.90;;;;;;2624427;47;19954;-81
2023/10/02 18:22:40;;;;;;;;;;;20.70;99.90;;;;;;2624763;47;19950;-81
2023/10/02 18:25:11;;;;;;;;;;;20.60;99.90;;;;;;2626330;47;19949;-80
2023/10/02 18:27:48;;;;;;;;;;;20.50;99.90;;;;;;2623827;47;19953;-79
2023/10/02 18:30:18;;;;;;;;;;;20.50;99.90;;;;;;2616922;47;19954;-80
2023/10/02 18:32:52;;;;;;;;;;;20.50;99.90;;;;;;2620169;47;19958;-80
2023/10/02 18:35:23;;;;;;;;;;;20.40;99.90;;;;;;2620458;54;19946;-78
2023/10/02 18:37:55;;;;;;;;;;;20.40;99.90;;;;;;2620493;47;19990;-78
2023/10/02 18:40:26;;;;;;;;;;;20.30;99.90;;;;;;2619107;46;19954;-80
2023/10/02 18:43:03;;;;;;;;;;;20.20;99.90;;;;;;2619349;47;20449;-79
2023/10/02 18:45:45;;;;;;;;;;;20.20;99.90;;;;;;2618848;47;19946;-79
2023/10/02 18:48:21;;;;;;;;;;;20.10;99.90;;;;;;2620139;47;19957;-81
2023/10/02 18:50:53;;;;;;;;;;;20.10;99.90;;;;;;2624436;54;19971;-81
2023/10/02 18:53:31;;;;;;;;;;;20.00;99.90;;;;;;2622848;54;19950;-81
2023/10/02 18:56:01;;;;;;;;;;;19.80;99.90;;;;;;2623656;54;19951;-81
2023/10/02 18:58:31;;;;;;;;;;;19.90;99.90;;;;;;2624582;54;19947;-81
2023/10/02 19:01:02;;;;;;;;;;;19.80;99.90;;;;;;2621486;47;19998;-80
2023/10/02 19:03:38;;;;;;;;;;;20.00;99.90;;;;;;2618468;47;19952;-81
2023/10/02 19:06:09;;;;;;;;;;;19.60;99.90;;;;;;2620453;54;19953;-79
2023/10/02 19:08:45;;;;;;;;;;;19.70;99.90;;;;;;2618777;47;19957;-81